Kayanm — FH8826 — position and weather

sailwx.info

Track history (hours):
 
Tides and Currents Weather Stations Pressure Air Temp Water Temp Dewpoint Dewpoint Depression Visibility Wind Speed Wind Dir Waves Ship Positions

Kayanm

Last reported at 2017-Dec-01 10:58 UTC. Time now 2017-Dec-11 19:14 UTC.
Position N 37°01' W 008°14'.
Warning: this ship's position is 10 days out of date.

Length 13 m.

Type: Sailing vessel. MMSI: 227101160.

Date/timePositionNaut miles runAvg speedWind from/ knotsBaromVisibWave heightAir tempDewpointWater temp
2017-Dec-01 10:58N 37°01' W 008°14'3 5.6
2017-Dec-01 10:27N 37°02' W 008°18'6 5.5
2017-Dec-01 09:19N 37°04' W 008°25'3 5.5
2017-Dec-01 08:49N 37°05' W 008°29'2 4.8
2017-Dec-01 08:18N 37°06' W 008°31'  
2017-Nov-28 16:31N 37°07' W 008°32'0 0.5
2017-Nov-28 15:38N 37°07' W 008°31'0 0.0
2017-Nov-28 14:50N 37°07' W 008°31'0 0.0
2017-Nov-28 14:20N 37°07' W 008°31'1 1.8
2017-Nov-28 13:59N 37°06' W 008°32'2 4.6
2017-Nov-28 13:30N 37°04' W 008°31'0 0.5
2017-Nov-28 13:00N 37°04' W 008°31'2 4.1
2017-Nov-28 12:29N 37°06' W 008°32'1 2.2
2017-Nov-28 11:55N 37°07' W 008°32'0 0.0
2017-Nov-27 22:25N 37°07' W 008°32'0 0.0
2017-Nov-27 21:55N 37°07' W 008°32'  
2017-Nov-25 09:53N 37°07' W 008°32'0 0.0
2017-Nov-23 09:59N 37°07' W 008°32'  
Track history (hours):
 
Tides and Currents Weather Stations Pressure Air Temp Water Temp Dewpoint Dewpoint Depression Visibility Wind Speed Wind Dir Waves Ship Positions

Kayanm

Last reported at 2017-Dec-01 10:58 UTC. Time now 2017-Dec-11 19:14 UTC.
Position N 37°01' W 008°14'.
Warning: this ship's position is 10 days out of date.

Length 13 m.

Type: Sailing vessel. MMSI: 227101160.

Date/timePositionNaut miles runAvg speedWind from/ knotsBaromVisibWave heightAir tempDewpointWater temp
2017-Dec-01 10:58N 37°01' W 008°14'3 5.6
2017-Dec-01 10:27N 37°02' W 008°18'6 5.5
2017-Dec-01 09:19N 37°04' W 008°25'3 5.5
2017-Dec-01 08:49N 37°05' W 008°29'2 4.8
2017-Dec-01 08:18N 37°06' W 008°31'  
2017-Nov-28 16:31N 37°07' W 008°32'0 0.5
2017-Nov-28 15:38N 37°07' W 008°31'0 0.0
2017-Nov-28 14:50N 37°07' W 008°31'0 0.0
2017-Nov-28 14:20N 37°07' W 008°31'1 1.8
2017-Nov-28 13:59N 37°06' W 008°32'2 4.6
2017-Nov-28 13:30N 37°04' W 008°31'0 0.5
2017-Nov-28 13:00N 37°04' W 008°31'2 4.1
2017-Nov-28 12:29N 37°06' W 008°32'1 2.2
2017-Nov-28 11:55N 37°07' W 008°32'0 0.0
2017-Nov-27 22:25N 37°07' W 008°32'0 0.0
2017-Nov-27 21:55N 37°07' W 008°32'  
2017-Nov-25 09:53N 37°07' W 008°32'0 0.0
2017-Nov-23 09:59N 37°07' W 008°32'  

Dump ship's entire track history